EmailTwitter


Observations de surface / France / LFPO (07149)

Régions: Québec | Canada | États-Unis | Europe | France | UK | Elsewhere
Station
Affichage
Infos & localisation pour LFPO (07149) | Aide pour décoder les METARs

Observations prises le 2017-04-23 à 09H30 UTC à PARIS/ORLY, FR (LFPO)

Etat du ciel: partiellement nuageux.

Température: 11.0 Celsius

Point de rosée: -1.0 Celsius

Humidité relative: 43%

Facteur vent: 9.

Vents: Nord-est à 17 km/h ou 9 noeuds.

Pression au niveau moyen de la mer: 102.70 kilopascals.

Visibilité horizontale: 6.21 milles terrestres ou 9.94 kilomètres.

Hauteur du plafond: 1829 mètres ( 6000 pieds ).

Observation METAR:

LFPO 230930Z 05009KT 020V100 9999 FEW048 BKN060 11/M01 Q1027 NOSIG=